sensor_id;sensor_type;location;lat;lon;timestamp;pressure;altitude;pressure_sealevel;temperature;humidity
57948;BME280;43754;56.992;24.292;2023-03-20T00:01:00;101486.22;;;5.62;100.00
57948;BME280;43754;56.992;24.292;2023-03-20T00:03:32;101483.41;;;5.64;100.00
57948;BME280;43754;56.992;24.292;2023-03-20T00:06:07;101477.84;;;5.67;100.00
57948;BME280;43754;56.992;24.292;2023-03-20T00:08:45;101476.88;;;5.68;100.00
57948;BME280;43754;56.992;24.292;2023-03-20T00:11:27;101468.91;;;5.68;100.00
57948;BME280;43754;56.992;24.292;2023-03-20T00:14:01;101460.66;;;5.71;100.00
57948;BME280;43754;56.992;24.292;2023-03-20T00:16:35;101471.88;;;5.74;100.00
57948;BME280;43754;56.992;24.292;2023-03-20T00:19:14;101460.13;;;5.77;100.00
57948;BME280;43754;56.992;24.292;2023-03-20T00:21:47;101461.81;;;5.78;100.00
57948;BME280;43754;56.992;24.292;2023-03-20T00:24:21;101459.88;;;5.80;100.00
57948;BME280;43754;56.992;24.292;2023-03-20T00:26:53;101449.66;;;5.85;100.00
57948;BME280;43754;56.992;24.292;2023-03-20T00:29:27;101452.09;;;5.88;100.00
57948;BME280;43754;56.992;24.292;2023-03-20T00:32:01;101463.59;;;5.88;100.00
57948;BME280;43754;56.992;24.292;2023-03-20T00:34:33;101455.72;;;5.87;100.00
57948;BME280;43754;56.992;24.292;2023-03-20T00:37:05;101451.50;;;5.84;100.00
57948;BME280;43754;56.992;24.292;2023-03-20T00:39:39;101447.00;;;5.85;100.00
57948;BME280;43754;56.992;24.292;2023-03-20T00:42:18;101447.16;;;5.83;100.00
57948;BME280;43754;56.992;24.292;2023-03-20T00:44:53;101437.59;;;5.81;100.00
57948;BME280;43754;56.992;24.292;2023-03-20T00:47:36;101434.25;;;5.79;100.00
57948;BME280;43754;56.992;24.292;2023-03-20T00:50:17;101432.66;;;5.76;100.00
57948;BME280;43754;56.992;24.292;2023-03-20T00:52:50;101431.13;;;5.74;100.00
57948;BME280;43754;56.992;24.292;2023-03-20T00:55:26;101432.09;;;5.73;100.00
57948;BME280;43754;56.992;24.292;2023-03-20T00:58:00;101434.91;;;5.71;100.00
57948;BME280;43754;56.992;24.292;2023-03-20T01:00:37;101433.91;;;5.72;100.00
57948;BME280;43754;56.992;24.292;2023-03-20T01:03:13;101432.25;;;5.71;100.00
57948;BME280;43754;56.992;24.292;2023-03-20T01:05:47;101433.91;;;5.72;100.00
57948;BME280;43754;56.992;24.292;2023-03-20T01:08:21;101441.75;;;5.74;100.00
57948;BME280;43754;56.992;24.292;2023-03-20T01:10:57;101430.16;;;5.75;100.00
57948;BME280;43754;56.992;24.292;2023-03-20T01:13:29;101431.69;;;5.77;100.00
57948;BME280;43754;56.992;24.292;2023-03-20T01:16:02;101420.78;;;5.80;100.00
57948;BME280;43754;56.992;24.292;2023-03-20T01:18:34;101419.56;;;5.84;100.00
57948;BME280;43754;56.992;24.292;2023-03-20T01:21:07;101425.34;;;5.89;100.00
57948;BME280;43754;56.992;24.292;2023-03-20T01:23:39;101416.28;;;5.92;100.00
57948;BME280;43754;56.992;24.292;2023-03-20T01:26:21;101416.13;;;5.93;100.00
57948;BME280;43754;56.992;24.292;2023-03-20T01:28:55;101426.53;;;5.96;100.00
57948;BME280;43754;56.992;24.292;2023-03-20T01:31:27;101424.69;;;5.97;100.00
57948;BME280;43754;56.992;24.292;2023-03-20T01:33:59;101417.69;;;5.96;100.00
57948;BME280;43754;56.992;24.292;2023-03-20T01:36:31;101412.38;;;5.96;100.00
57948;BME280;43754;56.992;24.292;2023-03-20T01:39:04;101413.22;;;5.96;100.00
57948;BME280;43754;56.992;24.292;2023-03-20T01:41:38;101411.66;;;5.94;100.00
57948;BME280;43754;56.992;24.292;2023-03-20T01:44:17;101405.47;;;5.93;100.00
57948;BME280;43754;56.992;24.292;2023-03-20T01:46:52;101405.34;;;5.95;100.00
57948;BME280;43754;56.992;24.292;2023-03-20T01:52:29;101411.53;;;5.95;100.00
57948;BME280;43754;56.992;24.292;2023-03-20T01:55:02;101409.72;;;5.96;100.00
57948;BME280;43754;56.992;24.292;2023-03-20T01:57:36;101414.31;;;5.94;100.00
57948;BME280;43754;56.992;24.292;2023-03-20T02:00:11;101409.94;;;5.93;100.00
57948;BME280;43754;56.992;24.292;2023-03-20T02:02:48;101394.53;;;5.87;100.00
57948;BME280;43754;56.992;24.292;2023-03-20T02:05:39;101399.25;;;5.83;100.00
57948;BME280;43754;56.992;24.292;2023-03-20T02:08:18;101389.03;;;5.79;100.00
57948;BME280;43754;56.992;24.292;2023-03-20T02:10:52;101388.28;;;5.77;100.00
57948;BME280;43754;56.992;24.292;2023-03-20T02:13:31;101386.75;;;5.74;100.00
57948;BME280;43754;56.992;24.292;2023-03-20T02:16:06;101384.22;;;5.73;100.00
57948;BME280;43754;56.992;24.292;2023-03-20T02:19:14;101375.53;;;5.71;100.00
57948;BME280;43754;56.992;24.292;2023-03-20T02:22:17;101371.31;;;5.68;100.00
57948;BME280;43754;56.992;24.292;2023-03-20T02:31:20;101364.84;;;5.61;100.00
57948;BME280;43754;56.992;24.292;2023-03-20T02:34:15;101355.56;;;5.55;100.00
57948;BME280;43754;56.992;24.292;2023-03-20T02:40:13;101348.59;;;5.54;100.00
57948;BME280;43754;56.992;24.292;2023-03-20T02:42:54;101359.22;;;5.54;100.00
57948;BME280;43754;56.992;24.292;2023-03-20T02:45:31;101355.84;;;5.52;100.00
57948;BME280;43754;56.992;24.292;2023-03-20T02:48:26;101355.00;;;5.52;100.00
57948;BME280;43754;56.992;24.292;2023-03-20T02:51:08;101352.50;;;5.50;100.00
57948;BME280;43754;56.992;24.292;2023-03-20T02:53:50;101349.22;;;5.47;100.00
57948;BME280;43754;56.992;24.292;2023-03-20T02:56:29;101350.94;;;5.48;100.00
57948;BME280;43754;56.992;24.292;2023-03-20T02:59:08;101345.88;;;5.45;100.00
57948;BME280;43754;56.992;24.292;2023-03-20T03:01:45;101345.88;;;5.45;100.00
57948;BME280;43754;56.992;24.292;2023-03-20T03:04:25;101341.69;;;5.42;100.00
57948;BME280;43754;56.992;24.292;2023-03-20T03:07:04;101346.00;;;5.43;100.00
57948;BME280;43754;56.992;24.292;2023-03-20T03:09:41;101344.47;;;5.41;100.00
57948;BME280;43754;56.992;24.292;2023-03-20T03:12:19;101344.34;;;5.42;100.00
57948;BME280;43754;56.992;24.292;2023-03-20T03:14:54;101340.00;;;5.41;100.00
57948;BME280;43754;56.992;24.292;2023-03-20T03:17:31;101349.06;;;5.39;100.00
57948;BME280;43754;56.992;24.292;2023-03-20T03:20:11;101346.16;;;5.42;100.00
57948;BME280;43754;56.992;24.292;2023-03-20T03:22:46;101342.38;;;5.44;100.00
57948;BME280;43754;56.992;24.292;2023-03-20T03:25:22;101335.94;;;5.47;100.00
57948;BME280;43754;56.992;24.292;2023-03-20T03:28:01;101332.06;;;5.51;100.00
57948;BME280;43754;56.992;24.292;2023-03-20T03:30:36;101330.38;;;5.50;100.00
57948;BME280;43754;56.992;24.292;2023-03-20T03:33:13;101335.44;;;5.53;100.00
57948;BME280;43754;56.992;24.292;2023-03-20T03:35:48;101323.66;;;5.55;100.00
57948;BME280;43754;56.992;24.292;2023-03-20T03:38:27;101322.56;;;5.58;100.00
57948;BME280;43754;56.992;24.292;2023-03-20T03:41:12;101316.28;;;5.59;100.00
57948;BME280;43754;56.992;24.292;2023-03-20T03:43:57;101316.41;;;5.57;100.00
57948;BME280;43754;56.992;24.292;2023-03-20T03:46:36;101320.88;;;5.57;100.00
57948;BME280;43754;56.992;24.292;2023-03-20T03:49:13;101309.41;;;5.56;100.00
57948;BME280;43754;56.992;24.292;2023-03-20T03:51:48;101310.91;;;5.49;100.00
57948;BME280;43754;56.992;24.292;2023-03-20T03:54:25;101303.47;;;5.43;100.00
57948;BME280;43754;56.992;24.292;2023-03-20T03:57:27;101298.97;;;5.34;100.00
57948;BME280;43754;56.992;24.292;2023-03-20T04:00:03;101308.31;;;5.29;100.00
57948;BME280;43754;56.992;24.292;2023-03-20T04:02:44;101298.91;;;5.25;100.00
57948;BME280;43754;56.992;24.292;2023-03-20T04:05:18;101296.53;;;5.22;100.00
57948;BME280;43754;56.992;24.292;2023-03-20T04:07:54;101294.44;;;5.25;100.00
57948;BME280;43754;56.992;24.292;2023-03-20T04:10:26;101295.88;;;5.29;100.00
57948;BME280;43754;56.992;24.292;2023-03-20T04:12:58;101287.03;;;5.29;100.00
57948;BME280;43754;56.992;24.292;2023-03-20T04:15:32;101291.13;;;5.33;100.00
57948;BME280;43754;56.992;24.292;2023-03-20T04:18:04;101285.81;;;5.33;100.00
57948;BME280;43754;56.992;24.292;2023-03-20T04:20:37;101280.22;;;5.36;100.00
57948;BME280;43754;56.992;24.292;2023-03-20T04:23:09;101271.84;;;5.40;100.00
57948;BME280;43754;56.992;24.292;2023-03-20T04:25:42;101277.72;;;5.44;100.00
57948;BME280;43754;56.992;24.292;2023-03-20T04:28:14;101280.09;;;5.47;100.00
57948;BME280;43754;56.992;24.292;2023-03-20T04:31:05;101273.97;;;5.46;100.00
57948;BME280;43754;56.992;24.292;2023-03-20T04:33:45;101271.88;;;5.50;100.00
57948;BME280;43754;56.992;24.292;2023-03-20T04:36:38;101276.09;;;5.52;100.00
57948;BME280;43754;56.992;24.292;2023-03-20T04:39:12;101272.19;;;5.56;100.00
57948;BME280;43754;56.992;24.292;2023-03-20T04:41:44;101269.97;;;5.62;100.00
57948;BME280;43754;56.992;24.292;2023-03-20T04:44:16;101274.03;;;5.66;100.00
57948;BME280;43754;56.992;24.292;2023-03-20T04:46:51;101268.88;;;5.74;100.00
57948;BME280;43754;56.992;24.292;2023-03-20T04:49:24;101266.66;;;5.79;100.00
57948;BME280;43754;56.992;24.292;2023-03-20T04:51:56;101264.44;;;5.84;100.00
57948;BME280;43754;56.992;24.292;2023-03-20T04:54:54;101264.88;;;5.89;100.00
57948;BME280;43754;56.992;24.292;2023-03-20T04:57:27;101264.63;;;5.92;100.00
57948;BME280;43754;56.992;24.292;2023-03-20T04:59:59;101263.50;;;5.94;100.00
57948;BME280;43754;56.992;24.292;2023-03-20T05:02:33;101266.72;;;5.98;100.00
57948;BME280;43754;56.992;24.292;2023-03-20T05:05:05;101259.44;;;6.00;100.00
57948;BME280;43754;56.992;24.292;2023-03-20T05:07:39;101262.81;;;6.02;100.00
57948;BME280;43754;56.992;24.292;2023-03-20T05:10:14;101260.00;;;6.04;100.00
57948;BME280;43754;56.992;24.292;2023-03-20T05:12:53;101261.69;;;6.05;100.00
57948;BME280;43754;56.992;24.292;2023-03-20T05:15:28;101258.63;;;6.09;100.00
57948;BME280;43754;56.992;24.292;2023-03-20T05:18:22;101261.00;;;6.12;100.00
57948;BME280;43754;56.992;24.292;2023-03-20T05:21:12;101259.03;;;6.14;100.00
57948;BME280;43754;56.992;24.292;2023-03-20T05:24:04;101252.88;;;6.14;100.00
57948;BME280;43754;56.992;24.292;2023-03-20T05:26:59;101242.94;;;6.16;100.00
57948;BME280;43754;56.992;24.292;2023-03-20T05:29:47;101254.13;;;6.19;100.00
57948;BME280;43754;56.992;24.292;2023-03-20T05:32:19;101249.66;;;6.20;100.00
57948;BME280;43754;56.992;24.292;2023-03-20T05:35:06;101244.78;;;6.25;100.00
57948;BME280;43754;56.992;24.292;2023-03-20T05:37:54;101250.66;;;6.28;100.00
57948;BME280;43754;56.992;24.292;2023-03-20T05:40:35;101258.63;;;6.28;100.00
57948;BME280;43754;56.992;24.292;2023-03-20T05:43:21;101248.13;;;6.27;100.00
57948;BME280;43754;56.992;24.292;2023-03-20T05:46:22;101256.25;;;6.25;100.00
57948;BME280;43754;56.992;24.292;2023-03-20T05:49:15;101254.56;;;6.24;100.00
57948;BME280;43754;56.992;24.292;2023-03-20T05:52:07;101259.19;;;6.22;100.00
57948;BME280;43754;56.992;24.292;2023-03-20T05:54:48;101258.19;;;6.23;100.00
57948;BME280;43754;56.992;24.292;2023-03-20T05:57:41;101261.41;;;6.27;100.00
57948;BME280;43754;56.992;24.292;2023-03-20T06:00:43;101257.09;;;6.35;100.00
57948;BME280;43754;56.992;24.292;2023-03-20T06:03:47;101267.19;;;6.41;100.00
57948;BME280;43754;56.992;24.292;2023-03-20T06:06:27;101255.97;;;6.47;100.00
57948;BME280;43754;56.992;24.292;2023-03-20T06:09:01;101259.88;;;6.53;100.00
57948;BME280;43754;56.992;24.292;2023-03-20T06:11:34;101255.84;;;6.59;100.00
57948;BME280;43754;56.992;24.292;2023-03-20T06:14:10;101255.13;;;6.66;100.00
57948;BME280;43754;56.992;24.292;2023-03-20T06:16:45;101241.66;;;6.68;100.00
57948;BME280;43754;56.992;24.292;2023-03-20T06:19:19;101243.31;;;6.69;100.00
57948;BME280;43754;56.992;24.292;2023-03-20T06:21:52;101240.53;;;6.80;100.00
57948;BME280;43754;56.992;24.292;2023-03-20T06:24:26;101232.78;;;6.86;100.00
57948;BME280;43754;56.992;24.292;2023-03-20T06:27:00;101229.13;;;6.97;100.00
57948;BME280;43754;56.992;24.292;2023-03-20T06:29:32;101226.00;;;7.02;100.00
57948;BME280;43754;56.992;24.292;2023-03-20T06:32:16;101224.84;;;7.14;100.00
57948;BME280;43754;56.992;24.292;2023-03-20T06:34:51;101238.69;;;7.27;100.00
57948;BME280;43754;56.992;24.292;2023-03-20T06:37:24;101232.75;;;7.43;100.00
57948;BME280;43754;56.992;24.292;2023-03-20T06:40:07;101233.59;;;7.61;100.00
57948;BME280;43754;56.992;24.292;2023-03-20T06:42:41;101231.84;;;7.79;100.00
57948;BME280;43754;56.992;24.292;2023-03-20T06:45:14;101226.00;;;7.93;100.00
57948;BME280;43754;56.992;24.292;2023-03-20T06:47:47;101234.53;;;8.14;99.83
57948;BME280;43754;56.992;24.292;2023-03-20T06:50:19;101231.66;;;8.43;97.83
57948;BME280;43754;56.992;24.292;2023-03-20T06:52:51;101224.44;;;8.61;95.86
57948;BME280;43754;56.992;24.292;2023-03-20T06:55:40;101218.81;;;8.90;94.27
57948;BME280;43754;56.992;24.292;2023-03-20T06:58:12;101215.56;;;9.04;93.17
57948;BME280;43754;56.992;24.292;2023-03-20T07:00:44;101212.09;;;9.12;91.93
57948;BME280;43754;56.992;24.292;2023-03-20T07:03:17;101213.34;;;9.26;91.17
57948;BME280;43754;56.992;24.292;2023-03-20T07:05:51;101218.69;;;9.26;89.51
57948;BME280;43754;56.992;24.292;2023-03-20T07:08:25;101220.94;;;9.38;89.71
57948;BME280;43754;56.992;24.292;2023-03-20T07:10:59;101228.44;;;9.35;88.13
57948;BME280;43754;56.992;24.292;2023-03-20T07:13:31;101222.28;;;9.42;88.48
57948;BME280;43754;56.992;24.292;2023-03-20T07:16:11;101225.53;;;9.62;87.04
57948;BME280;43754;56.992;24.292;2023-03-20T07:18:45;101225.31;;;9.97;85.70
57948;BME280;43754;56.992;24.292;2023-03-20T07:21:19;101222.50;;;10.15;84.11
57948;BME280;43754;56.992;24.292;2023-03-20T07:23:52;101220.88;;;10.22;83.22
57948;BME280;43754;56.992;24.292;2023-03-20T07:26:26;101207.97;;;10.18;83.53
57948;BME280;43754;56.992;24.292;2023-03-20T07:28:58;101217.84;;;10.25;82.73
57948;BME280;43754;56.992;24.292;2023-03-20T07:31:31;101220.19;;;10.28;83.12
57948;BME280;43754;56.992;24.292;2023-03-20T07:34:12;101212.66;;;10.40;82.52
57948;BME280;43754;56.992;24.292;2023-03-20T07:36:45;101222.38;;;10.41;81.53
57948;BME280;43754;56.992;24.292;2023-03-20T07:39:22;101206.63;;;10.38;80.61
57948;BME280;43754;56.992;24.292;2023-03-20T07:42:07;101209.31;;;10.38;81.50
57948;BME280;43754;56.992;24.292;2023-03-20T07:44:49;101203.25;;;10.44;80.69
57948;BME280;43754;56.992;24.292;2023-03-20T07:47:21;101200.44;;;10.53;80.70
57948;BME280;43754;56.992;24.292;2023-03-20T07:49:53;101199.28;;;10.56;80.32
57948;BME280;43754;56.992;24.292;2023-03-20T07:52:26;101200.63;;;10.52;79.83
57948;BME280;43754;56.992;24.292;2023-03-20T07:54:58;101202.59;;;10.50;80.60
57948;BME280;43754;56.992;24.292;2023-03-20T07:57:32;101203.25;;;10.44;80.11
57948;BME280;43754;56.992;24.292;2023-03-20T08:00:05;101205.63;;;10.47;80.37
57948;BME280;43754;56.992;24.292;2023-03-20T08:02:42;101200.78;;;10.50;80.38
57948;BME280;43754;56.992;24.292;2023-03-20T08:05:14;101198.59;;;10.46;80.05
57948;BME280;43754;56.992;24.292;2023-03-20T08:07:47;101203.25;;;10.44;80.34
57948;BME280;43754;56.992;24.292;2023-03-20T08:10:20;101196.91;;;10.45;79.71
57948;BME280;43754;56.992;24.292;2023-03-20T08:12:54;101184.84;;;10.41;80.34
57948;BME280;43754;56.992;24.292;2023-03-20T08:15:26;101188.72;;;10.38;79.93
57948;BME280;43754;56.992;24.292;2023-03-20T08:17:58;101191.22;;;10.40;80.66
57948;BME280;43754;56.992;24.292;2023-03-20T08:20:31;101186.69;;;10.40;80.26
57948;BME280;43754;56.992;24.292;2023-03-20T08:23:03;101172.13;;;10.43;80.27
57948;BME280;43754;56.992;24.292;2023-03-20T08:25:35;101177.66;;;10.49;80.24
57948;BME280;43754;56.992;24.292;2023-03-20T08:28:09;101175.31;;;10.46;80.34
57948;BME280;43754;56.992;24.292;2023-03-20T08:30:42;101172.28;;;10.49;80.32
57948;BME280;43754;56.992;24.292;2023-03-20T08:33:15;101171.44;;;10.49;80.17
57948;BME280;43754;56.992;24.292;2023-03-20T08:35:54;101166.09;;;10.49;78.82
57948;BME280;43754;56.992;24.292;2023-03-20T08:38:26;101168.75;;;10.57;79.87
57948;BME280;43754;56.992;24.292;2023-03-20T08:40:59;101171.63;;;10.55;79.56
57948;BME280;43754;56.992;24.292;2023-03-20T08:43:32;101170.44;;;10.58;79.32
57948;BME280;43754;56.992;24.292;2023-03-20T08:46:05;101166.75;;;10.59;79.38
57948;BME280;43754;56.992;24.292;2023-03-20T08:48:37;101168.94;;;10.64;79.43
57948;BME280;43754;56.992;24.292;2023-03-20T08:51:09;101160.06;;;10.63;79.40
57948;BME280;43754;56.992;24.292;2023-03-20T08:53:41;101167.75;;;10.66;79.29
57948;BME280;43754;56.992;24.292;2023-03-20T08:56:13;101164.22;;;10.74;78.64
57948;BME280;43754;56.992;24.292;2023-03-20T08:58:47;101157.69;;;10.68;78.31
57948;BME280;43754;56.992;24.292;2023-03-20T09:01:19;101160.00;;;10.79;78.75
57948;BME280;43754;56.992;24.292;2023-03-20T09:03:51;101159.63;;;10.90;77.82
57948;BME280;43754;56.992;24.292;2023-03-20T09:06:23;101157.78;;;10.99;77.23
57948;BME280;43754;56.992;24.292;2023-03-20T09:08:55;101159.56;;;11.15;77.11
57948;BME280;43754;56.992;24.292;2023-03-20T09:11:28;101163.06;;;11.23;75.97
57948;BME280;43754;56.992;24.292;2023-03-20T09:14:02;101162.69;;;11.34;75.21
57948;BME280;43754;56.992;24.292;2023-03-20T09:16:36;101153.47;;;11.29;76.04
57948;BME280;43754;56.992;24.292;2023-03-20T09:19:08;101149.03;;;11.44;74.73
57948;BME280;43754;56.992;24.292;2023-03-20T09:21:40;101153.34;;;11.53;74.01
57948;BME280;43754;56.992;24.292;2023-03-20T09:24:12;101152.19;;;11.56;73.87
57948;BME280;43754;56.992;24.292;2023-03-20T09:26:44;101147.94;;;11.61;73.44
57948;BME280;43754;56.992;24.292;2023-03-20T09:29:18;101150.56;;;11.69;73.80
57948;BME280;43754;56.992;24.292;2023-03-20T09:31:52;101152.75;;;11.74;73.12
57948;BME280;43754;56.992;24.292;2023-03-20T09:34:24;101150.16;;;11.88;73.19
57948;BME280;43754;56.992;24.292;2023-03-20T09:36:56;101150.81;;;11.90;73.31
57948;BME280;43754;56.992;24.292;2023-03-20T09:39:28;101146.59;;;11.96;72.32
57948;BME280;43754;56.992;24.292;2023-03-20T09:42:06;101149.69;;;12.08;71.49
57948;BME280;43754;56.992;24.292;2023-03-20T09:44:49;101148.13;;;12.13;71.91
57948;BME280;43754;56.992;24.292;2023-03-20T09:47:31;101142.69;;;12.21;71.24
57948;BME280;43754;56.992;24.292;2023-03-20T09:50:15;101134.81;;;12.20;70.42
57948;BME280;43754;56.992;24.292;2023-03-20T09:52:59;101125.56;;;12.37;70.16
57948;BME280;43754;56.992;24.292;2023-03-20T09:55:39;101124.75;;;12.36;70.30
57948;BME280;43754;56.992;24.292;2023-03-20T09:58:15;101133.94;;;12.57;69.43
57948;BME280;43754;56.992;24.292;2023-03-20T10:00:50;101129.16;;;12.67;68.82
57948;BME280;43754;56.992;24.292;2023-03-20T10:03:28;101128.25;;;12.89;69.27
57948;BME280;43754;56.992;24.292;2023-03-20T10:06:05;101116.38;;;12.98;68.32
57948;BME280;43754;56.992;24.292;2023-03-20T10:08:39;101118.59;;;13.09;67.09
57948;BME280;43754;56.992;24.292;2023-03-20T10:11:22;101120.16;;;13.04;66.67
57948;BME280;43754;56.992;24.292;2023-03-20T10:14:15;101119.34;;;12.88;67.72
57948;BME280;43754;56.992;24.292;2023-03-20T10:17:00;101115.81;;;12.88;67.71
57948;BME280;43754;56.992;24.292;2023-03-20T10:19:41;101110.97;;;12.83;68.63
57948;BME280;43754;56.992;24.292;2023-03-20T10:22:19;101111.28;;;12.88;68.02
57948;BME280;43754;56.992;24.292;2023-03-20T10:24:55;101119.44;;;12.80;67.73
57948;BME280;43754;56.992;24.292;2023-03-20T10:27:32;101109.13;;;12.84;68.22
57948;BME280;43754;56.992;24.292;2023-03-20T10:30:22;101102.34;;;12.73;67.62
57948;BME280;43754;56.992;24.292;2023-03-20T10:33:09;101108.31;;;12.69;68.34
57948;BME280;43754;56.992;24.292;2023-03-20T10:35:48;101103.47;;;12.64;68.73
57948;BME280;43754;56.992;24.292;2023-03-20T10:38:32;101106.06;;;12.58;68.67
57948;BME280;43754;56.992;24.292;2023-03-20T10:41:12;101093.34;;;12.52;68.71
57948;BME280;43754;56.992;24.292;2023-03-20T10:43:47;101099.19;;;12.55;68.59
57948;BME280;43754;56.992;24.292;2023-03-20T10:46:22;101107.97;;;12.49;68.75
57948;BME280;43754;56.992;24.292;2023-03-20T10:49:00;101097.06;;;12.51;68.29
57948;BME280;43754;56.992;24.292;2023-03-20T10:51:38;101092.53;;;12.51;68.43
57948;BME280;43754;56.992;24.292;2023-03-20T10:54:20;101092.97;;;12.55;67.38
57948;BME280;43754;56.992;24.292;2023-03-20T10:56:54;101087.16;;;12.51;68.02
57948;BME280;43754;56.992;24.292;2023-03-20T10:59:32;101091.13;;;12.55;68.94
57948;BME280;43754;56.992;24.292;2023-03-20T11:02:09;101084.25;;;12.53;67.99
57948;BME280;43754;56.992;24.292;2023-03-20T11:04:43;101089.75;;;12.59;68.59
57948;BME280;43754;56.992;24.292;2023-03-20T11:07:21;101088.34;;;12.63;68.58
57948;BME280;43754;56.992;24.292;2023-03-20T11:10:09;101080.38;;;12.55;68.76
57948;BME280;43754;56.992;24.292;2023-03-20T11:12:44;101081.31;;;12.48;69.19
57948;BME280;43754;56.992;24.292;2023-03-20T11:15:23;101076.56;;;12.50;69.60
57948;BME280;43754;56.992;24.292;2023-03-20T11:17:57;101081.84;;;12.58;69.89
57948;BME280;43754;56.992;24.292;2023-03-20T11:20:36;101079.34;;;12.41;69.23
57948;BME280;43754;56.992;24.292;2023-03-20T11:23:14;101078.94;;;12.30;69.54
57948;BME280;43754;56.992;24.292;2023-03-20T11:25:49;101073.00;;;12.20;70.19
57948;BME280;43754;56.992;24.292;2023-03-20T11:28:30;101079.28;;;12.12;69.80
57948;BME280;43754;56.992;24.292;2023-03-20T11:31:05;101070.28;;;12.05;70.45
57948;BME280;43754;56.992;24.292;2023-03-20T11:33:40;101063.31;;;11.96;71.69
57948;BME280;43754;56.992;24.292;2023-03-20T11:36:22;101056.78;;;11.90;73.72
57948;BME280;43754;56.992;24.292;2023-03-20T11:39:05;101060.22;;;11.84;75.96
57948;BME280;43754;56.992;24.292;2023-03-20T11:41:41;101066.31;;;11.70;77.96
57948;BME280;43754;56.992;24.292;2023-03-20T11:44:22;101062.75;;;11.55;79.24
57948;BME280;43754;56.992;24.292;2023-03-20T11:46:56;101067.19;;;11.40;79.75
57948;BME280;43754;56.992;24.292;2023-03-20T11:49:29;101054.56;;;11.26;80.99
57948;BME280;43754;56.992;24.292;2023-03-20T11:52:11;101058.59;;;11.22;82.33
57948;BME280;43754;56.992;24.292;2023-03-20T11:54:46;101042.72;;;11.12;83.27
57948;BME280;43754;56.992;24.292;2023-03-20T11:57:30;101041.91;;;11.03;88.64
57948;BME280;43754;56.992;24.292;2023-03-20T12:00:05;101029.75;;;10.93;92.32
57948;BME280;43754;56.992;24.292;2023-03-20T12:02:40;101026.31;;;10.76;95.08
57948;BME280;43754;56.992;24.292;2023-03-20T12:05:30;101022.34;;;10.64;99.75
57948;BME280;43754;56.992;24.292;2023-03-20T12:08:08;101016.16;;;10.55;100.00
57948;BME280;43754;56.992;24.292;2023-03-20T12:10:49;101021.88;;;10.44;100.00
57948;BME280;43754;56.992;24.292;2023-03-20T12:13:27;101015.56;;;10.29;100.00
57948;BME280;43754;56.992;24.292;2023-03-20T12:16:03;101018.06;;;10.14;100.00
57948;BME280;43754;56.992;24.292;2023-03-20T12:18:39;101005.38;;;10.08;100.00
57948;BME280;43754;56.992;24.292;2023-03-20T12:21:15;101005.72;;;10.05;100.00
57948;BME280;43754;56.992;24.292;2023-03-20T12:23:52;101000.03;;;9.92;100.00
57948;BME280;43754;56.992;24.292;2023-03-20T12:26:31;100996.88;;;9.89;100.00
57948;BME280;43754;56.992;24.292;2023-03-20T12:29:09;100995.69;;;9.83;100.00
57948;BME280;43754;56.992;24.292;2023-03-20T12:31:51;100996.19;;;9.87;100.00
57948;BME280;43754;56.992;24.292;2023-03-20T12:34:28;100994.69;;;9.92;100.00
57948;BME280;43754;56.992;24.292;2023-03-20T12:37:03;100991.66;;;9.95;100.00
57948;BME280;43754;56.992;24.292;2023-03-20T12:39:38;100988.63;;;10.06;100.00
57948;BME280;43754;56.992;24.292;2023-03-20T12:42:21;100985.63;;;10.18;100.00
57948;BME280;43754;56.992;24.292;2023-03-20T12:45:00;100980.91;;;10.28;100.00
57948;BME280;43754;56.992;24.292;2023-03-20T12:47:52;100975.47;;;10.44;100.00
57948;BME280;43754;56.992;24.292;2023-03-20T12:50:30;100978.94;;;10.69;100.00
57948;BME280;43754;56.992;24.292;2023-03-20T12:53:23;100976.94;;;10.93;100.00
57948;BME280;43754;56.992;24.292;2023-03-20T12:56:07;100967.44;;;11.14;100.00
57948;BME280;43754;56.992;24.292;2023-03-20T12:58:47;100958.47;;;11.21;100.00
57948;BME280;43754;56.992;24.292;2023-03-20T13:01:27;100954.44;;;11.25;100.00
57948;BME280;43754;56.992;24.292;2023-03-20T13:04:17;100956.75;;;11.28;100.00
57948;BME280;43754;56.992;24.292;2023-03-20T13:06:53;100951.22;;;11.30;100.00
57948;BME280;43754;56.992;24.292;2023-03-20T13:09:48;100942.16;;;11.31;100.00
57948;BME280;43754;56.992;24.292;2023-03-20T13:12:34;100939.03;;;11.42;100.00
57948;BME280;43754;56.992;24.292;2023-03-20T13:15:21;100931.00;;;11.57;100.00
57948;BME280;43754;56.992;24.292;2023-03-20T13:18:00;100927.06;;;11.67;100.00
57948;BME280;43754;56.992;24.292;2023-03-20T13:20:43;100919.66;;;11.69;100.00
57948;BME280;43754;56.992;24.292;2023-03-20T13:23:22;100923.88;;;11.72;100.00
57948;BME280;43754;56.992;24.292;2023-03-20T13:26:24;100924.50;;;11.74;100.00
57948;BME280;43754;56.992;24.292;2023-03-20T13:29:05;100921.03;;;11.65;100.00
57948;BME280;43754;56.992;24.292;2023-03-20T13:31:47;100914.56;;;11.60;100.00
57948;BME280;43754;56.992;24.292;2023-03-20T13:34:30;100916.47;;;11.51;100.00
57948;BME280;43754;56.992;24.292;2023-03-20T13:37:12;100905.81;;;11.43;100.00
57948;BME280;43754;56.992;24.292;2023-03-20T13:40:01;100910.22;;;11.36;100.00
57948;BME280;43754;56.992;24.292;2023-03-20T13:42:36;100911.66;;;11.24;100.00
57948;BME280;43754;56.992;24.292;2023-03-20T13:45:32;100902.13;;;11.21;100.00
57948;BME280;43754;56.992;24.292;2023-03-20T13:48:23;100904.75;;;11.29;100.00